sensor_id;sensor_type;location;lat;lon;timestamp;P1;durP1;ratioP1;P2;durP2;ratioP2
92;SDS011;16232;48.800;9.002;2024-03-22T00:00:23;23.80;;;19.33;;
92;SDS011;16232;48.800;9.002;2024-03-22T00:02:50;21.90;;;17.13;;
92;SDS011;16232;48.800;9.002;2024-03-22T00:05:19;25.93;;;19.57;;
92;SDS011;16232;48.800;9.002;2024-03-22T00:07:47;23.43;;;18.43;;
92;SDS011;16232;48.800;9.002;2024-03-22T00:10:14;22.37;;;17.57;;
92;SDS011;16232;48.800;9.002;2024-03-22T00:12:41;22.97;;;17.50;;
92;SDS011;16232;48.800;9.002;2024-03-22T00:15:08;23.97;;;17.93;;
92;SDS011;16232;48.800;9.002;2024-03-22T00:17:34;20.90;;;16.63;;
92;SDS011;16232;48.800;9.002;2024-03-22T00:20:02;28.67;;;20.30;;
92;SDS011;16232;48.800;9.002;2024-03-22T00:22:30;23.30;;;16.90;;
92;SDS011;16232;48.800;9.002;2024-03-22T00:24:57;20.87;;;16.37;;
92;SDS011;16232;48.800;9.002;2024-03-22T00:27:23;23.60;;;16.77;;
92;SDS011;16232;48.800;9.002;2024-03-22T00:29:51;22.27;;;17.43;;
92;SDS011;16232;48.800;9.002;2024-03-22T00:32:17;21.23;;;16.80;;
92;SDS011;16232;48.800;9.002;2024-03-22T00:34:45;24.53;;;18.80;;
92;SDS011;16232;48.800;9.002;2024-03-22T00:37:11;22.73;;;17.93;;
92;SDS011;16232;48.800;9.002;2024-03-22T00:39:40;25.27;;;20.03;;
92;SDS011;16232;48.800;9.002;2024-03-22T00:42:07;26.80;;;19.80;;
92;SDS011;16232;48.800;9.002;2024-03-22T00:44:34;26.63;;;18.47;;
92;SDS011;16232;48.800;9.002;2024-03-22T00:47:00;28.63;;;20.17;;
92;SDS011;16232;48.800;9.002;2024-03-22T00:49:28;32.40;;;21.80;;
92;SDS011;16232;48.800;9.002;2024-03-22T00:51:55;32.00;;;22.33;;
92;SDS011;16232;48.800;9.002;2024-03-22T00:54:23;30.90;;;22.33;;
92;SDS011;16232;48.800;9.002;2024-03-22T00:56:50;31.60;;;23.03;;
92;SDS011;16232;48.800;9.002;2024-03-22T00:59:18;34.43;;;23.27;;
92;SDS011;16232;48.800;9.002;2024-03-22T01:01:44;31.33;;;21.27;;
92;SDS011;16232;48.800;9.002;2024-03-22T01:04:12;27.93;;;21.07;;
92;SDS011;16232;48.800;9.002;2024-03-22T01:06:38;26.23;;;19.30;;
92;SDS011;16232;48.800;9.002;2024-03-22T01:09:06;24.47;;;17.53;;
92;SDS011;16232;48.800;9.002;2024-03-22T01:11:32;22.80;;;18.47;;
92;SDS011;16232;48.800;9.002;2024-03-22T01:14:01;24.20;;;16.77;;
92;SDS011;16232;48.800;9.002;2024-03-22T01:16:27;30.63;;;19.50;;
92;SDS011;16232;48.800;9.002;2024-03-22T01:18:55;24.77;;;17.83;;
92;SDS011;16232;48.800;9.002;2024-03-22T01:21:21;25.27;;;18.43;;
92;SDS011;16232;48.800;9.002;2024-03-22T01:23:50;25.87;;;18.40;;
92;SDS011;16232;48.800;9.002;2024-03-22T01:26:17;26.10;;;18.23;;
92;SDS011;16232;48.800;9.002;2024-03-22T01:28:44;21.03;;;15.87;;
92;SDS011;16232;48.800;9.002;2024-03-22T01:31:12;28.90;;;19.50;;
92;SDS011;16232;48.800;9.002;2024-03-22T01:33:39;21.23;;;17.20;;
92;SDS011;16232;48.800;9.002;2024-03-22T01:36:06;23.53;;;17.57;;
92;SDS011;16232;48.800;9.002;2024-03-22T01:38:33;20.93;;;17.00;;
92;SDS011;16232;48.800;9.002;2024-03-22T01:41:00;21.53;;;15.63;;
92;SDS011;16232;48.800;9.002;2024-03-22T01:43:27;25.17;;;18.00;;
92;SDS011;16232;48.800;9.002;2024-03-22T01:45:54;24.20;;;17.33;;
92;SDS011;16232;48.800;9.002;2024-03-22T01:48:22;22.87;;;17.13;;
92;SDS011;16232;48.800;9.002;2024-03-22T01:50:49;27.30;;;19.43;;
92;SDS011;16232;48.800;9.002;2024-03-22T01:53:17;27.37;;;19.47;;
92;SDS011;16232;48.800;9.002;2024-03-22T01:55:44;26.67;;;19.80;;
92;SDS011;16232;48.800;9.002;2024-03-22T01:58:11;24.57;;;17.67;;
92;SDS011;16232;48.800;9.002;2024-03-22T02:00:38;24.37;;;17.23;;
92;SDS011;16232;48.800;9.002;2024-03-22T02:03:05;27.37;;;18.37;;
92;SDS011;16232;48.800;9.002;2024-03-22T02:05:33;27.37;;;18.63;;
92;SDS011;16232;48.800;9.002;2024-03-22T02:08:01;19.93;;;15.87;;
92;SDS011;16232;48.800;9.002;2024-03-22T02:10:27;21.37;;;16.17;;
92;SDS011;16232;48.800;9.002;2024-03-22T02:12:54;22.87;;;16.37;;
92;SDS011;16232;48.800;9.002;2024-03-22T02:15:24;18.57;;;14.30;;
92;SDS011;16232;48.800;9.002;2024-03-22T02:17:52;18.80;;;14.80;;
92;SDS011;16232;48.800;9.002;2024-03-22T02:20:18;16.93;;;13.97;;
92;SDS011;16232;48.800;9.002;2024-03-22T02:22:47;27.17;;;18.37;;
92;SDS011;16232;48.800;9.002;2024-03-22T02:25:15;21.93;;;15.80;;
92;SDS011;16232;48.800;9.002;2024-03-22T02:27:42;18.33;;;14.50;;
92;SDS011;16232;48.800;9.002;2024-03-22T02:30:09;19.60;;;14.73;;
92;SDS011;16232;48.800;9.002;2024-03-22T02:32:37;25.80;;;18.20;;
92;SDS011;16232;48.800;9.002;2024-03-22T02:35:04;22.70;;;17.13;;
92;SDS011;16232;48.800;9.002;2024-03-22T02:37:32;22.47;;;17.27;;
92;SDS011;16232;48.800;9.002;2024-03-22T02:39:58;28.20;;;19.00;;
92;SDS011;16232;48.800;9.002;2024-03-22T02:42:27;19.17;;;16.43;;
92;SDS011;16232;48.800;9.002;2024-03-22T02:44:54;24.20;;;16.50;;
92;SDS011;16232;48.800;9.002;2024-03-22T02:47:21;22.60;;;16.03;;
92;SDS011;16232;48.800;9.002;2024-03-22T02:49:47;22.90;;;16.33;;
92;SDS011;16232;48.800;9.002;2024-03-22T02:52:15;20.60;;;16.00;;
92;SDS011;16232;48.800;9.002;2024-03-22T02:54:41;17.40;;;14.53;;
92;SDS011;16232;48.800;9.002;2024-03-22T02:57:09;17.17;;;14.67;;
92;SDS011;16232;48.800;9.002;2024-03-22T02:59:37;22.13;;;15.90;;
92;SDS011;16232;48.800;9.002;2024-03-22T03:02:04;22.07;;;16.87;;
92;SDS011;16232;48.800;9.002;2024-03-22T03:04:30;22.73;;;16.80;;
92;SDS011;16232;48.800;9.002;2024-03-22T03:06:58;18.40;;;15.37;;
92;SDS011;16232;48.800;9.002;2024-03-22T03:09:25;20.20;;;15.93;;
92;SDS011;16232;48.800;9.002;2024-03-22T03:11:52;23.70;;;16.70;;
92;SDS011;16232;48.800;9.002;2024-03-22T03:14:18;21.20;;;16.87;;
92;SDS011;16232;48.800;9.002;2024-03-22T03:16:47;20.37;;;14.50;;
92;SDS011;16232;48.800;9.002;2024-03-22T03:19:14;23.83;;;16.63;;
92;SDS011;16232;48.800;9.002;2024-03-22T03:21:41;22.20;;;15.53;;
92;SDS011;16232;48.800;9.002;2024-03-22T03:24:07;20.13;;;15.87;;
92;SDS011;16232;48.800;9.002;2024-03-22T03:26:35;17.73;;;13.60;;
92;SDS011;16232;48.800;9.002;2024-03-22T03:29:01;20.47;;;16.10;;
92;SDS011;16232;48.800;9.002;2024-03-22T03:31:29;26.43;;;18.33;;
92;SDS011;16232;48.800;9.002;2024-03-22T03:33:57;23.17;;;17.47;;
92;SDS011;16232;48.800;9.002;2024-03-22T03:36:24;21.53;;;14.67;;
92;SDS011;16232;48.800;9.002;2024-03-22T03:38:50;17.93;;;14.63;;
92;SDS011;16232;48.800;9.002;2024-03-22T03:41:18;22.43;;;16.77;;
92;SDS011;16232;48.800;9.002;2024-03-22T03:43:44;19.23;;;15.63;;
92;SDS011;16232;48.800;9.002;2024-03-22T03:46:12;25.17;;;17.47;;
92;SDS011;16232;48.800;9.002;2024-03-22T03:48:38;20.57;;;16.70;;
92;SDS011;16232;48.800;9.002;2024-03-22T03:51:07;22.10;;;17.00;;
92;SDS011;16232;48.800;9.002;2024-03-22T03:53:33;18.47;;;14.73;;
92;SDS011;16232;48.800;9.002;2024-03-22T03:56:01;25.57;;;17.50;;
92;SDS011;16232;48.800;9.002;2024-03-22T03:58:27;21.40;;;15.27;;
92;SDS011;16232;48.800;9.002;2024-03-22T04:00:55;17.90;;;14.20;;
92;SDS011;16232;48.800;9.002;2024-03-22T04:03:21;18.67;;;15.10;;
92;SDS011;16232;48.800;9.002;2024-03-22T04:05:55;21.50;;;15.70;;
92;SDS011;16232;48.800;9.002;2024-03-22T04:08:23;22.63;;;16.60;;
92;SDS011;16232;48.800;9.002;2024-03-22T04:10:51;23.23;;;17.40;;
92;SDS011;16232;48.800;9.002;2024-03-22T04:13:18;24.60;;;16.17;;
92;SDS011;16232;48.800;9.002;2024-03-22T04:15:45;20.37;;;15.70;;
92;SDS011;16232;48.800;9.002;2024-03-22T04:18:11;25.17;;;17.67;;
92;SDS011;16232;48.800;9.002;2024-03-22T04:20:39;22.73;;;17.87;;
92;SDS011;16232;48.800;9.002;2024-03-22T04:23:05;19.57;;;15.70;;
92;SDS011;16232;48.800;9.002;2024-03-22T04:25:34;19.83;;;16.10;;
92;SDS011;16232;48.800;9.002;2024-03-22T04:28:00;20.87;;;16.60;;
92;SDS011;16232;48.800;9.002;2024-03-22T04:30:28;25.17;;;16.90;;
92;SDS011;16232;48.800;9.002;2024-03-22T04:32:54;19.17;;;15.47;;
92;SDS011;16232;48.800;9.002;2024-03-22T04:35:22;21.10;;;16.70;;
92;SDS011;16232;48.800;9.002;2024-03-22T04:37:48;24.83;;;17.87;;
92;SDS011;16232;48.800;9.002;2024-03-22T04:40:16;18.93;;;14.47;;
92;SDS011;16232;48.800;9.002;2024-03-22T04:42:44;19.17;;;14.77;;
92;SDS011;16232;48.800;9.002;2024-03-22T04:45:12;18.90;;;15.50;;
92;SDS011;16232;48.800;9.002;2024-03-22T04:47:38;22.20;;;15.83;;
92;SDS011;16232;48.800;9.002;2024-03-22T04:50:06;19.10;;;15.33;;
92;SDS011;16232;48.800;9.002;2024-03-22T04:52:34;21.60;;;15.93;;
92;SDS011;16232;48.800;9.002;2024-03-22T04:55:01;21.33;;;16.50;;
92;SDS011;16232;48.800;9.002;2024-03-22T04:57:28;15.67;;;13.97;;
92;SDS011;16232;48.800;9.002;2024-03-22T04:59:57;15.60;;;12.30;;
92;SDS011;16232;48.800;9.002;2024-03-22T05:02:23;19.40;;;15.40;;
92;SDS011;16232;48.800;9.002;2024-03-22T05:04:50;17.37;;;14.07;;
92;SDS011;16232;48.800;9.002;2024-03-22T05:07:17;19.87;;;15.70;;
92;SDS011;16232;48.800;9.002;2024-03-22T05:09:44;19.73;;;15.67;;
92;SDS011;16232;48.800;9.002;2024-03-22T05:12:11;21.30;;;16.23;;
92;SDS011;16232;48.800;9.002;2024-03-22T05:14:38;19.07;;;13.90;;
92;SDS011;16232;48.800;9.002;2024-03-22T05:17:06;18.77;;;15.30;;
92;SDS011;16232;48.800;9.002;2024-03-22T05:19:33;17.33;;;14.40;;
92;SDS011;16232;48.800;9.002;2024-03-22T05:22:00;20.03;;;14.87;;
92;SDS011;16232;48.800;9.002;2024-03-22T05:24:28;18.00;;;15.43;;
92;SDS011;16232;48.800;9.002;2024-03-22T05:26:54;19.73;;;16.57;;
92;SDS011;16232;48.800;9.002;2024-03-22T05:29:21;17.90;;;14.00;;
92;SDS011;16232;48.800;9.002;2024-03-22T05:31:48;18.53;;;14.77;;
92;SDS011;16232;48.800;9.002;2024-03-22T05:34:18;15.33;;;12.63;;
92;SDS011;16232;48.800;9.002;2024-03-22T05:36:45;18.20;;;13.93;;
92;SDS011;16232;48.800;9.002;2024-03-22T05:39:12;19.40;;;14.13;;
92;SDS011;16232;48.800;9.002;2024-03-22T05:41:39;16.27;;;13.33;;
92;SDS011;16232;48.800;9.002;2024-03-22T05:44:07;17.30;;;13.80;;
92;SDS011;16232;48.800;9.002;2024-03-22T05:46:33;17.13;;;14.07;;
92;SDS011;16232;48.800;9.002;2024-03-22T05:49:01;19.67;;;14.20;;
92;SDS011;16232;48.800;9.002;2024-03-22T05:51:29;20.03;;;14.83;;
92;SDS011;16232;48.800;9.002;2024-03-22T05:53:57;21.07;;;15.90;;
92;SDS011;16232;48.800;9.002;2024-03-22T05:56:23;18.47;;;13.00;;
92;SDS011;16232;48.800;9.002;2024-03-22T05:58:50;15.40;;;12.70;;
92;SDS011;16232;48.800;9.002;2024-03-22T06:01:17;19.03;;;14.43;;
92;SDS011;16232;48.800;9.002;2024-03-22T06:03:44;16.33;;;13.43;;
92;SDS011;16232;48.800;9.002;2024-03-22T06:06:11;14.80;;;12.73;;
92;SDS011;16232;48.800;9.002;2024-03-22T06:08:39;18.73;;;14.73;;
92;SDS011;16232;48.800;9.002;2024-03-22T06:11:08;26.60;;;16.20;;
92;SDS011;16232;48.800;9.002;2024-03-22T06:13:36;16.00;;;14.30;;
92;SDS011;16232;48.800;9.002;2024-03-22T06:16:02;18.53;;;14.93;;
92;SDS011;16232;48.800;9.002;2024-03-22T06:18:30;20.60;;;15.90;;
92;SDS011;16232;48.800;9.002;2024-03-22T06:20:56;16.30;;;14.13;;
92;SDS011;16232;48.800;9.002;2024-03-22T06:23:24;19.10;;;14.40;;
92;SDS011;16232;48.800;9.002;2024-03-22T06:25:53;18.57;;;16.17;;
92;SDS011;16232;48.800;9.002;2024-03-22T06:28:19;18.43;;;14.87;;
92;SDS011;16232;48.800;9.002;2024-03-22T06:30:47;15.37;;;12.10;;
92;SDS011;16232;48.800;9.002;2024-03-22T06:33:13;14.93;;;13.43;;
92;SDS011;16232;48.800;9.002;2024-03-22T06:35:41;13.77;;;12.37;;
92;SDS011;16232;48.800;9.002;2024-03-22T06:38:07;17.23;;;14.13;;
92;SDS011;16232;48.800;9.002;2024-03-22T06:40:35;15.00;;;13.40;;
92;SDS011;16232;48.800;9.002;2024-03-22T06:43:03;14.40;;;12.90;;
92;SDS011;16232;48.800;9.002;2024-03-22T06:45:30;14.07;;;12.60;;
92;SDS011;16232;48.800;9.002;2024-03-22T06:47:57;16.17;;;11.67;;
92;SDS011;16232;48.800;9.002;2024-03-22T06:50:24;16.80;;;12.00;;
92;SDS011;16232;48.800;9.002;2024-03-22T06:52:50;13.57;;;11.83;;
92;SDS011;16232;48.800;9.002;2024-03-22T06:55:18;13.00;;;11.40;;
92;SDS011;16232;48.800;9.002;2024-03-22T06:57:45;13.30;;;11.90;;
92;SDS011;16232;48.800;9.002;2024-03-22T07:00:14;12.53;;;10.63;;
92;SDS011;16232;48.800;9.002;2024-03-22T07:02:41;11.57;;;9.93;;
92;SDS011;16232;48.800;9.002;2024-03-22T07:05:09;12.90;;;9.80;;
92;SDS011;16232;48.800;9.002;2024-03-22T07:07:36;11.40;;;10.10;;
92;SDS011;16232;48.800;9.002;2024-03-22T07:10:04;11.17;;;9.10;;
92;SDS011;16232;48.800;9.002;2024-03-22T07:12:30;13.03;;;9.33;;
92;SDS011;16232;48.800;9.002;2024-03-22T07:14:59;12.83;;;10.90;;
92;SDS011;16232;48.800;9.002;2024-03-22T07:17:26;10.43;;;8.37;;
92;SDS011;16232;48.800;9.002;2024-03-22T07:19:54;10.03;;;8.87;;
92;SDS011;16232;48.800;9.002;2024-03-22T07:22:21;9.67;;;8.17;;
92;SDS011;16232;48.800;9.002;2024-03-22T07:24:48;8.17;;;7.47;;
92;SDS011;16232;48.800;9.002;2024-03-22T07:27:16;8.83;;;7.67;;
92;SDS011;16232;48.800;9.002;2024-03-22T07:29:44;9.70;;;7.43;;
92;SDS011;16232;48.800;9.002;2024-03-22T07:32:10;9.03;;;7.30;;
92;SDS011;16232;48.800;9.002;2024-03-22T07:34:39;8.03;;;7.23;;
92;SDS011;16232;48.800;9.002;2024-03-22T07:37:06;12.00;;;7.90;;
92;SDS011;16232;48.800;9.002;2024-03-22T07:39:33;8.43;;;7.10;;
92;SDS011;16232;48.800;9.002;2024-03-22T07:42:00;14.60;;;7.87;;
92;SDS011;16232;48.800;9.002;2024-03-22T07:44:28;9.83;;;6.67;;
92;SDS011;16232;48.800;9.002;2024-03-22T07:46:54;10.27;;;7.13;;
92;SDS011;16232;48.800;9.002;2024-03-22T07:49:22;9.73;;;7.67;;
92;SDS011;16232;48.800;9.002;2024-03-22T07:51:50;9.93;;;7.50;;
92;SDS011;16232;48.800;9.002;2024-03-22T07:54:18;8.93;;;7.03;;
92;SDS011;16232;48.800;9.002;2024-03-22T07:56:44;9.40;;;6.70;;
92;SDS011;16232;48.800;9.002;2024-03-22T07:59:12;6.33;;;5.70;;
92;SDS011;16232;48.800;9.002;2024-03-22T08:01:38;8.77;;;6.60;;
92;SDS011;16232;48.800;9.002;2024-03-22T08:04:06;7.77;;;6.43;;
92;SDS011;16232;48.800;9.002;2024-03-22T08:06:33;7.30;;;5.93;;
92;SDS011;16232;48.800;9.002;2024-03-22T08:09:02;7.50;;;5.50;;
92;SDS011;16232;48.800;9.002;2024-03-22T08:11:28;8.83;;;6.07;;
92;SDS011;16232;48.800;9.002;2024-03-22T08:13:56;8.53;;;5.67;;
92;SDS011;16232;48.800;9.002;2024-03-22T08:16:28;9.20;;;5.90;;
92;SDS011;16232;48.800;9.002;2024-03-22T08:18:56;7.87;;;6.07;;
92;SDS011;16232;48.800;9.002;2024-03-22T08:21:23;7.90;;;5.57;;
92;SDS011;16232;48.800;9.002;2024-03-22T08:23:51;6.00;;;5.37;;
92;SDS011;16232;48.800;9.002;2024-03-22T08:26:18;5.23;;;4.77;;
92;SDS011;16232;48.800;9.002;2024-03-22T08:28:46;7.63;;;5.57;;
92;SDS011;16232;48.800;9.002;2024-03-22T08:31:13;6.17;;;5.17;;
92;SDS011;16232;48.800;9.002;2024-03-22T08:33:42;6.40;;;5.80;;
92;SDS011;16232;48.800;9.002;2024-03-22T08:36:09;6.33;;;5.40;;
92;SDS011;16232;48.800;9.002;2024-03-22T08:38:36;5.37;;;4.80;;
92;SDS011;16232;48.800;9.002;2024-03-22T08:41:03;7.83;;;5.80;;
92;SDS011;16232;48.800;9.002;2024-03-22T08:43:32;6.07;;;5.07;;
92;SDS011;16232;48.800;9.002;2024-03-22T08:45:59;6.17;;;5.50;;
92;SDS011;16232;48.800;9.002;2024-03-22T08:48:26;7.80;;;5.33;;
92;SDS011;16232;48.800;9.002;2024-03-22T08:50:53;6.50;;;5.03;;
92;SDS011;16232;48.800;9.002;2024-03-22T08:53:20;8.30;;;5.63;;
92;SDS011;16232;48.800;9.002;2024-03-22T08:55:47;6.17;;;5.57;;
92;SDS011;16232;48.800;9.002;2024-03-22T08:58:14;7.97;;;5.40;;
92;SDS011;16232;48.800;9.002;2024-03-22T09:00:43;7.00;;;5.53;;
92;SDS011;16232;48.800;9.002;2024-03-22T09:03:11;6.80;;;5.37;;
92;SDS011;16232;48.800;9.002;2024-03-22T09:05:38;10.13;;;6.00;;
92;SDS011;16232;48.800;9.002;2024-03-22T09:08:06;6.87;;;5.87;;
92;SDS011;16232;48.800;9.002;2024-03-22T09:10:32;6.43;;;5.70;;
92;SDS011;16232;48.800;9.002;2024-03-22T09:13:00;5.60;;;4.87;;
92;SDS011;16232;48.800;9.002;2024-03-22T09:15:27;8.03;;;5.40;;
92;SDS011;16232;48.800;9.002;2024-03-22T09:17:56;6.37;;;5.17;;
92;SDS011;16232;48.800;9.002;2024-03-22T09:20:22;9.27;;;5.13;;
92;SDS011;16232;48.800;9.002;2024-03-22T09:22:50;6.63;;;5.50;;
92;SDS011;16232;48.800;9.002;2024-03-22T09:25:16;7.20;;;5.27;;
92;SDS011;16232;48.800;9.002;2024-03-22T09:27:44;5.50;;;5.00;;
92;SDS011;16232;48.800;9.002;2024-03-22T09:30:11;5.57;;;4.77;;
92;SDS011;16232;48.800;9.002;2024-03-22T09:32:39;6.30;;;5.47;;
92;SDS011;16232;48.800;9.002;2024-03-22T09:35:07;7.27;;;4.80;;
92;SDS011;16232;48.800;9.002;2024-03-22T09:37:35;7.50;;;5.27;;
92;SDS011;16232;48.800;9.002;2024-03-22T09:40:02;6.47;;;4.73;;
92;SDS011;16232;48.800;9.002;2024-03-22T09:42:32;6.37;;;5.10;;
92;SDS011;16232;48.800;9.002;2024-03-22T09:44:59;5.20;;;4.43;;
92;SDS011;16232;48.800;9.002;2024-03-22T09:47:27;7.20;;;4.80;;
92;SDS011;16232;48.800;9.002;2024-03-22T09:49:54;5.43;;;4.70;;
92;SDS011;16232;48.800;9.002;2024-03-22T09:52:23;10.83;;;5.20;;
92;SDS011;16232;48.800;9.002;2024-03-22T09:54:50;6.13;;;4.77;;
92;SDS011;16232;48.800;9.002;2024-03-22T09:57:18;5.00;;;4.47;;
92;SDS011;16232;48.800;9.002;2024-03-22T09:59:46;5.57;;;4.43;;
92;SDS011;16232;48.800;9.002;2024-03-22T10:02:14;6.23;;;4.70;;
92;SDS011;16232;48.800;9.002;2024-03-22T10:04:40;6.73;;;4.70;;
92;SDS011;16232;48.800;9.002;2024-03-22T10:07:08;9.00;;;4.73;;
92;SDS011;16232;48.800;9.002;2024-03-22T10:09:36;4.73;;;4.20;;
92;SDS011;16232;48.800;9.002;2024-03-22T10:12:04;5.47;;;4.27;;
92;SDS011;16232;48.800;9.002;2024-03-22T10:14:31;6.40;;;4.30;;
92;SDS011;16232;48.800;9.002;2024-03-22T10:16:58;6.10;;;3.67;;
92;SDS011;16232;48.800;9.002;2024-03-22T10:19:25;4.63;;;3.50;;
92;SDS011;16232;48.800;9.002;2024-03-22T10:21:59;4.93;;;3.40;;
92;SDS011;16232;48.800;9.002;2024-03-22T10:24:26;5.63;;;3.37;;
92;SDS011;16232;48.800;9.002;2024-03-22T10:26:55;2.60;;;2.00;;
92;SDS011;16232;48.800;9.002;2024-03-22T10:29:22;3.00;;;2.00;;
92;SDS011;16232;48.800;9.002;2024-03-22T10:31:50;4.00;;;2.37;;
92;SDS011;16232;48.800;9.002;2024-03-22T10:34:17;3.83;;;2.70;;
92;SDS011;16232;48.800;9.002;2024-03-22T10:36:45;3.77;;;2.37;;
92;SDS011;16232;48.800;9.002;2024-03-22T10:39:13;4.03;;;2.30;;
92;SDS011;16232;48.800;9.002;2024-03-22T10:41:43;3.70;;;2.40;;
92;SDS011;16232;48.800;9.002;2024-03-22T10:44:10;5.03;;;2.23;;
92;SDS011;16232;48.800;9.002;2024-03-22T10:46:38;3.77;;;2.20;;
92;SDS011;16232;48.800;9.002;2024-03-22T10:49:08;3.73;;;2.30;;
92;SDS011;16232;48.800;9.002;2024-03-22T10:51:35;4.47;;;2.73;;
92;SDS011;16232;48.800;9.002;2024-03-22T10:54:02;3.83;;;2.50;;
92;SDS011;16232;48.800;9.002;2024-03-22T10:56:30;4.00;;;2.33;;
92;SDS011;16232;48.800;9.002;2024-03-22T10:58:57;3.93;;;2.63;;
92;SDS011;16232;48.800;9.002;2024-03-22T11:01:26;3.20;;;2.40;;
92;SDS011;16232;48.800;9.002;2024-03-22T11:04:02;4.83;;;3.03;;
92;SDS011;16232;48.800;9.002;2024-03-22T11:06:31;3.77;;;2.70;;
92;SDS011;16232;48.800;9.002;2024-03-22T11:08:59;4.70;;;2.83;;
92;SDS011;16232;48.800;9.002;2024-03-22T11:11:29;4.17;;;2.90;;
92;SDS011;16232;48.800;9.002;2024-03-22T11:13:56;3.20;;;2.43;;
92;SDS011;16232;48.800;9.002;2024-03-22T11:16:25;4.30;;;2.57;;
92;SDS011;16232;48.800;9.002;2024-03-22T11:18:52;3.93;;;2.53;;
92;SDS011;16232;48.800;9.002;2024-03-22T11:21:19;4.20;;;2.10;;
92;SDS011;16232;48.800;9.002;2024-03-22T11:23:46;4.63;;;2.40;;
92;SDS011;16232;48.800;9.002;2024-03-22T11:26:13;5.67;;;2.40;;
92;SDS011;16232;48.800;9.002;2024-03-22T11:28:39;5.07;;;2.73;;
92;SDS011;16232;48.800;9.002;2024-03-22T11:31:08;5.23;;;2.63;;
92;SDS011;16232;48.800;9.002;2024-03-22T11:33:36;4.93;;;2.40;;
92;SDS011;16232;48.800;9.002;2024-03-22T11:36:03;2.97;;;2.20;;
92;SDS011;16232;48.800;9.002;2024-03-22T11:38:30;3.20;;;2.90;;
92;SDS011;16232;48.800;9.002;2024-03-22T11:40:59;3.00;;;2.50;;
92;SDS011;16232;48.800;9.002;2024-03-22T11:43:25;2.67;;;2.27;;
92;SDS011;16232;48.800;9.002;2024-03-22T11:45:54;4.07;;;2.20;;
92;SDS011;16232;48.800;9.002;2024-03-22T11:48:20;2.90;;;2.30;;
92;SDS011;16232;48.800;9.002;2024-03-22T11:50:50;3.00;;;2.47;;
92;SDS011;16232;48.800;9.002;2024-03-22T11:53:17;3.20;;;1.80;;
92;SDS011;16232;48.800;9.002;2024-03-22T11:55:44;3.50;;;2.30;;
92;SDS011;16232;48.800;9.002;2024-03-22T11:58:10;1.97;;;1.80;;
92;SDS011;16232;48.800;9.002;2024-03-22T12:00:38;3.17;;;1.90;;
92;SDS011;16232;48.800;9.002;2024-03-22T12:03:04;3.27;;;1.93;;
92;SDS011;16232;48.800;9.002;2024-03-22T12:05:32;3.13;;;2.13;;
92;SDS011;16232;48.800;9.002;2024-03-22T12:08:00;4.50;;;2.07;;
92;SDS011;16232;48.800;9.002;2024-03-22T12:10:28;3.50;;;2.50;;
92;SDS011;16232;48.800;9.002;2024-03-22T12:12:54;2.50;;;1.87;;
92;SDS011;16232;48.800;9.002;2024-03-22T12:15:22;2.93;;;2.20;;
92;SDS011;16232;48.800;9.002;2024-03-22T12:17:48;2.90;;;1.57;;
92;SDS011;16232;48.800;9.002;2024-03-22T12:20:16;3.87;;;1.97;;
92;SDS011;16232;48.800;9.002;2024-03-22T12:22:42;2.53;;;1.80;;
92;SDS011;16232;48.800;9.002;2024-03-22T12:25:11;3.83;;;1.97;;
92;SDS011;16232;48.800;9.002;2024-03-22T12:27:37;3.30;;;1.60;;
92;SDS011;16232;48.800;9.002;2024-03-22T12:30:05;3.40;;;1.97;;
92;SDS011;16232;48.800;9.002;2024-03-22T12:32:33;1.50;;;1.40;;
92;SDS011;16232;48.800;9.002;2024-03-22T12:35:01;2.57;;;2.00;;
92;SDS011;16232;48.800;9.002;2024-03-22T12:37:27;1.83;;;1.40;;
92;SDS011;16232;48.800;9.002;2024-03-22T12:39:55;2.83;;;1.60;;
92;SDS011;16232;48.800;9.002;2024-03-22T12:42:22;3.47;;;1.77;;
92;SDS011;16232;48.800;9.002;2024-03-22T12:44:50;4.00;;;2.00;;
92;SDS011;16232;48.800;9.002;2024-03-22T12:47:16;2.17;;;1.50;;
92;SDS011;16232;48.800;9.002;2024-03-22T12:49:44;2.50;;;1.70;;
92;SDS011;16232;48.800;9.002;2024-03-22T12:52:11;3.30;;;1.97;;
92;SDS011;16232;48.800;9.002;2024-03-22T12:54:38;2.83;;;2.03;;
92;SDS011;16232;48.800;9.002;2024-03-22T12:57:04;2.77;;;1.63;;
92;SDS011;16232;48.800;9.002;2024-03-22T12:59:33;2.53;;;1.53;;
92;SDS011;16232;48.800;9.002;2024-03-22T13:02:00;2.30;;;1.70;;
92;SDS011;16232;48.800;9.002;2024-03-22T13:04:28;3.57;;;1.50;;
92;SDS011;16232;48.800;9.002;2024-03-22T13:06:54;3.13;;;1.70;;
92;SDS011;16232;48.800;9.002;2024-03-22T13:09:21;2.33;;;1.80;;
92;SDS011;16232;48.800;9.002;2024-03-22T13:11:48;3.63;;;1.97;;
92;SDS011;16232;48.800;9.002;2024-03-22T13:14:15;2.67;;;1.83;;
92;SDS011;16232;48.800;9.002;2024-03-22T13:16:43;2.47;;;1.80;;
92;SDS011;16232;48.800;9.002;2024-03-22T13:19:11;5.43;;;2.20;;
92;SDS011;16232;48.800;9.002;2024-03-22T13:21:38;3.20;;;1.80;;
92;SDS011;16232;48.800;9.002;2024-03-22T13:24:06;4.17;;;1.77;;
92;SDS011;16232;48.800;9.002;2024-03-22T13:26:33;3.03;;;1.70;;
92;SDS011;16232;48.800;9.002;2024-03-22T13:29:00;3.20;;;2.07;;
92;SDS011;16232;48.800;9.002;2024-03-22T13:31:27;4.17;;;2.03;;
92;SDS011;16232;48.800;9.002;2024-03-22T13:33:55;4.03;;;1.53;;
92;SDS011;16232;48.800;9.002;2024-03-22T13:36:22;2.47;;;2.20;;
92;SDS011;16232;48.800;9.002;2024-03-22T13:38:50;3.97;;;2.03;;
92;SDS011;16232;48.800;9.002;2024-03-22T13:41:18;2.30;;;1.90;;
92;SDS011;16232;48.800;9.002;2024-03-22T13:43:44;3.60;;;1.83;;
92;SDS011;16232;48.800;9.002;2024-03-22T13:46:14;2.67;;;1.77;;
92;SDS011;16232;48.800;9.002;2024-03-22T13:48:42;2.37;;;1.90;;
92;SDS011;16232;48.800;9.002;2024-03-22T13:51:11;3.00;;;1.60;;
92;SDS011;16232;48.800;9.002;2024-03-22T13:53:38;3.77;;;1.60;;
92;SDS011;16232;48.800;9.002;2024-03-22T13:56:05;4.17;;;1.63;;
92;SDS011;16232;48.800;9.002;2024-03-22T13:58:32;5.53;;;2.50;;
92;SDS011;16232;48.800;9.002;2024-03-22T14:00:59;2.97;;;2.40;;
92;SDS011;16232;48.800;9.002;2024-03-22T14:03:26;3.67;;;2.53;;
92;SDS011;16232;48.800;9.002;2024-03-22T14:05:53;3.60;;;2.80;;
92;SDS011;16232;48.800;9.002;2024-03-22T14:08:21;2.83;;;2.20;;
92;SDS011;16232;48.800;9.002;2024-03-22T14:10:49;3.77;;;2.10;;
92;SDS011;16232;48.800;9.002;2024-03-22T14:13:15;4.47;;;2.10;;
92;SDS011;16232;48.800;9.002;2024-03-22T14:15:42;4.67;;;2.07;;
92;SDS011;16232;48.800;9.002;2024-03-22T14:18:09;4.00;;;1.40;;
92;SDS011;16232;48.800;9.002;2024-03-22T14:20:36;2.27;;;1.53;;
92;SDS011;16232;48.800;9.002;2024-03-22T14:23:03;3.53;;;1.73;;
92;SDS011;16232;48.800;9.002;2024-03-22T14:25:33;2.50;;;1.47;;
92;SDS011;16232;48.800;9.002;2024-03-22T14:28:00;1.93;;;1.00;;
92;SDS011;16232;48.800;9.002;2024-03-22T14:30:27;3.90;;;1.33;;
92;SDS011;16232;48.800;9.002;2024-03-22T14:32:54;2.13;;;1.00;;
92;SDS011;16232;48.800;9.002;2024-03-22T14:35:21;1.43;;;1.00;;
92;SDS011;16232;48.800;9.002;2024-03-22T14:37:47;2.83;;;1.03;;
92;SDS011;16232;48.800;9.002;2024-03-22T14:40:15;1.33;;;1.17;;
92;SDS011;16232;48.800;9.002;2024-03-22T14:42:43;1.10;;;0.90;;
92;SDS011;16232;48.800;9.002;2024-03-22T14:45:11;1.73;;;1.20;;
92;SDS011;16232;48.800;9.002;2024-03-22T14:47:37;2.20;;;1.20;;
92;SDS011;16232;48.800;9.002;2024-03-22T14:50:05;2.00;;;1.13;;
92;SDS011;16232;48.800;9.002;2024-03-22T14:52:32;4.10;;;1.00;;
92;SDS011;16232;48.800;9.002;2024-03-22T14:55:00;2.07;;;1.10;;
92;SDS011;16232;48.800;9.002;2024-03-22T14:57:26;1.47;;;1.10;;
92;SDS011;16232;48.800;9.002;2024-03-22T14:59:55;2.17;;;1.07;;
92;SDS011;16232;48.800;9.002;2024-03-22T15:02:22;1.40;;;1.10;;
92;SDS011;16232;48.800;9.002;2024-03-22T15:04:49;2.63;;;1.17;;
92;SDS011;16232;48.800;9.002;2024-03-22T15:07:15;1.73;;;0.90;;
92;SDS011;16232;48.800;9.002;2024-03-22T15:09:45;1.90;;;1.20;;
92;SDS011;16232;48.800;9.002;2024-03-22T15:12:11;2.83;;;1.23;;
92;SDS011;16232;48.800;9.002;2024-03-22T15:14:39;2.07;;;1.30;;